Time;durP1;ratioP1;P1;durP2;ratioP2;P2;SDS_P1;SDS_P2;PMS_P1;PMS_P2;Temp;Humidity;BMP_temperature;BMP_pressure;BME280_temperature;BME280_humidity;BME280_pressure;Samples;Min_cycle;Max_cycle;Signal;HPM_P1;HPM_P2
2021/03/04 00:01:58;;;;;;;10.15;6.00;;;;;;;8.04;47.61;96464.66;5009108;28;20510;-41
2021/03/04 00:04:25;;;;;;;8.65;5.80;;;;;;;8.18;47.05;96462.72;5012439;28;20062;-43
2021/03/04 00:06:51;;;;;;;10.70;5.90;;;;;;;8.16;46.94;96461.44;5011077;28;20050;-42
2021/03/04 00:09:18;;;;;;;14.15;5.90;;;;;;;8.28;46.93;96458.19;5009895;28;20081;-42
2021/03/04 00:11:44;;;;;;;9.45;5.93;;;;;;;8.23;46.89;96452.94;5012044;28;20049;-43
2021/03/04 00:14:10;;;;;;;11.05;6.05;;;;;;;8.06;47.46;96449.00;5012868;28;20597;-45
2021/03/04 00:16:37;;;;;;;11.70;5.85;;;;;;;8.16;47.15;96446.06;5009025;28;20459;-45
2021/03/04 00:19:16;;;;;;;12.15;6.18;;;;;;;7.86;47.22;96384.75;5010701;28;20381;-42
2021/03/04 00:21:43;;;;;;;13.25;6.07;;;;;;;8.09;47.46;96443.00;5007864;28;20618;-43
2021/03/04 00:24:09;;;;;;;10.10;6.07;;;;;;;7.91;48.45;96438.53;5011233;28;20506;-46
2021/03/04 00:26:36;;;;;;;8.80;5.55;;;;;;;8.08;47.82;96438.69;5010611;28;20042;-46
2021/03/04 00:29:03;;;;;;;12.60;5.63;;;;;;;8.39;46.72;96429.94;5010577;28;20046;-44
2021/03/04 00:31:29;;;;;;;11.77;6.30;;;;;;;8.22;46.84;96437.84;5011232;28;20499;-50
2021/03/04 00:33:56;;;;;;;9.35;5.55;;;;;;;8.26;46.54;96430.75;5004770;28;20069;-48
2021/03/04 00:36:23;;;;;;;10.18;5.63;;;;;;;8.00;47.03;96423.25;5018320;28;20077;-43
2021/03/04 00:38:49;;;;;;;9.65;6.13;;;;;;;7.83;48.58;96425.75;5000573;28;20141;-43
2021/03/04 00:41:16;;;;;;;13.88;6.45;;;;;;;7.69;49.01;96420.41;5006602;28;20052;-49
2021/03/04 00:43:43;;;;;;;10.60;5.60;;;;;;;7.87;48.06;96424.09;5009166;28;20062;-48
2021/03/04 00:46:09;;;;;;;10.70;5.65;;;;;;;7.92;46.98;96415.88;4995014;28;20133;-43
2021/03/04 00:48:36;;;;;;;9.65;5.43;;;;;;;7.89;47.07;96413.78;5008772;28;20088;-44
2021/03/04 00:51:02;;;;;;;10.02;5.18;;;;;;;7.78;46.72;96418.59;5010772;28;20053;-46
2021/03/04 00:53:29;;;;;;;10.32;5.63;;;;;;;7.71;47.55;96413.63;4995847;28;20458;-43
2021/03/04 00:55:55;;;;;;;10.18;6.40;;;;;;;7.83;47.27;96412.28;5001796;28;20058;-43
2021/03/04 00:58:22;;;;;;;9.32;5.47;;;;;;;7.87;46.85;96406.00;5005106;28;20388;-43
2021/03/04 01:00:48;;;;;;;9.65;5.55;;;;;;;8.00;46.99;96411.69;5009755;28;20100;-49
2021/03/04 01:03:15;;;;;;;10.10;5.85;;;;;;;7.48;47.42;96396.59;5010544;28;20050;-47
2021/03/04 01:05:41;;;;;;;8.05;5.00;;;;;;;7.25;48.04;96397.59;5000180;28;20100;-44
2021/03/04 01:08:08;;;;;;;11.35;5.57;;;;;;;7.29;48.77;96387.03;4994103;28;20166;-50
2021/03/04 01:10:38;;;;;;;9.43;5.32;;;;;;;7.36;49.42;96392.81;4997585;28;20428;-49
2021/03/04 01:13:06;;;;;;;9.90;6.00;;;;;;;7.08;49.65;96379.34;5008096;28;20058;-50
2021/03/04 01:15:33;;;;;;;10.38;5.72;;;;;;;7.49;48.32;96389.31;5000776;28;20563;-45
2021/03/04 01:18:02;;;;;;;8.93;5.20;;;;;;;7.82;47.71;96378.38;5007291;28;20112;-47
2021/03/04 01:20:29;;;;;;;12.50;5.80;;;;;;;7.77;47.73;96365.00;4998827;28;20509;-48
2021/03/04 01:22:56;;;;;;;9.88;6.18;;;;;;;8.00;47.11;96361.28;5002827;28;20427;-48
2021/03/04 01:25:22;;;;;;;12.65;5.57;;;;;;;8.43;45.61;96372.38;5005572;28;20100;-47
2021/03/04 01:27:51;;;;;;;11.52;5.80;;;;;;;8.29;45.60;96360.84;5005047;28;20057;-47
2021/03/04 01:30:23;;;;;;;8.45;5.40;;;;;;;8.16;45.99;96357.13;5009556;28;20487;-51
2021/03/04 01:32:49;;;;;;;10.57;5.60;;;;;;;7.77;46.60;96349.66;5008227;28;20073;-46
2021/03/04 01:35:16;;;;;;;9.82;5.88;;;;;;;7.44;46.93;96349.84;5007757;28;20113;-47
2021/03/04 01:37:43;;;;;;;7.97;5.40;;;;;;;7.83;47.42;96350.34;5006700;28;20128;-46
2021/03/04 01:40:14;;;;;;;11.18;5.85;;;;;;;7.99;46.60;96346.19;5004196;28;20048;-45
2021/03/04 01:42:41;;;;;;;9.05;4.78;;;;;;;7.78;47.43;96334.31;5009046;28;20077;-45
2021/03/04 01:45:09;;;;;;;9.02;5.15;;;;;;;7.36;46.61;96338.97;5007466;28;20590;-49
2021/03/04 01:47:36;;;;;;;10.10;4.93;;;;;;;6.92;48.18;96335.81;4993201;28;20108;-47
2021/03/04 01:50:05;;;;;;;8.07;4.57;;;;;;;6.89;48.26;96332.91;5004720;28;20042;-46
2021/03/04 01:52:32;;;;;;;7.75;4.78;;;;;;;7.09;47.81;96318.28;4999403;28;20085;-44
2021/03/04 01:55:16;;;;;;;7.57;4.28;;;;;;;7.10;47.14;96331.41;4999833;28;20064;-45
2021/03/04 01:57:44;;;;;;;9.50;5.13;;;;;;;7.01;48.13;96327.84;5007254;28;20050;-46
2021/03/04 02:00:12;;;;;;;7.45;4.45;;;;;;;6.96;47.37;96309.91;4998224;28;20050;-45
2021/03/04 02:02:39;;;;;;;7.68;4.78;;;;;;;7.29;47.77;96317.06;5005670;28;20050;-46
2021/03/04 02:05:14;;;;;;;7.68;5.25;;;;;;;7.08;48.49;96313.97;4996356;28;20050;-46
2021/03/04 02:07:51;;;;;;;10.93;4.85;;;;;;;7.43;47.33;96321.31;5005644;28;20041;-47
2021/03/04 02:10:29;;;;;;;7.32;4.25;;;;;;;7.63;46.39;96316.56;5009531;28;20499;-47
2021/03/04 02:13:27;;;;;;;6.50;4.10;;;;;;;7.00;46.75;96313.59;5009139;28;20092;-49
2021/03/04 02:16:11;;;;;;;8.38;4.53;;;;;;;6.93;47.49;96310.50;5002284;28;20156;-50
2021/03/04 02:18:52;;;;;;;6.95;4.60;;;;;;;7.07;47.03;96297.03;5007988;28;20064;-44
2021/03/04 02:21:34;;;;;;;8.07;4.30;;;;;;;7.32;46.78;96301.09;5003014;28;20073;-43
2021/03/04 02:24:26;;;;;;;8.68;4.22;;;;;;;7.19;45.96;96283.88;5003143;28;20161;-44
2021/03/04 02:27:04;;;;;;;8.18;4.55;;;;;;;7.62;45.72;96286.16;5010634;28;20081;-52
2021/03/04 02:29:51;;;;;;;9.95;4.57;;;;;;;7.85;44.88;96296.97;5002139;28;20058;-43
2021/03/04 02:32:22;;;;;;;7.88;4.28;;;;;;;7.64;44.45;96293.94;5005904;28;20045;-43
2021/03/04 02:34:52;;;;;;;7.60;4.32;;;;;;;7.35;44.90;96289.72;5001004;28;20189;-44
2021/03/04 02:37:24;;;;;;;8.50;4.72;;;;;;;7.56;45.90;96291.97;5006424;28;20046;-45
2021/03/04 02:39:54;;;;;;;10.27;4.70;;;;;;;7.83;44.44;96285.69;5007234;28;20070;-50
2021/03/04 02:42:22;;;;;;;7.22;3.92;;;;;;;7.88;44.03;96293.66;5004329;28;20523;-46
2021/03/04 02:44:52;;;;;;;7.85;4.20;;;;;;;7.76;43.81;96290.69;5007850;28;20747;-43
2021/03/04 02:47:20;;;;;;;8.10;4.30;;;;;;;7.80;44.31;96286.28;5006789;28;20053;-50
2021/03/04 02:49:47;;;;;;;9.30;4.57;;;;;;;7.45;44.36;96281.44;5009857;28;20057;-47
2021/03/04 02:52:14;;;;;;;7.45;4.30;;;;;;;7.43;44.91;96291.69;4995801;28;20045;-45
2021/03/04 02:54:42;;;;;;;7.07;4.30;;;;;;;7.72;44.46;96287.81;5002252;28;20462;-46
2021/03/04 02:57:10;;;;;;;11.60;5.78;;;;;;;7.62;44.58;96283.47;5008006;28;20054;-43
2021/03/04 02:59:39;;;;;;;11.32;4.65;;;;;;;7.68;44.92;96284.16;5004791;28;20042;-48
2021/03/04 03:02:07;;;;;;;8.77;4.93;;;;;;;7.42;45.21;96284.72;5006963;28;20050;-44
2021/03/04 03:04:36;;;;;;;9.20;4.28;;;;;;;7.19;45.48;96283.09;4998866;28;20042;-44
2021/03/04 03:07:04;;;;;;;7.57;4.20;;;;;;;7.56;45.04;96282.00;5006382;28;20077;-44
2021/03/04 03:09:31;;;;;;;9.35;4.28;;;;;;;7.41;44.97;96280.44;5011279;28;20499;-47
2021/03/04 03:11:58;;;;;;;8.65;4.57;;;;;;;7.18;45.87;96274.22;5010535;28;20046;-45
2021/03/04 03:14:28;;;;;;;8.80;4.03;;;;;;;7.26;45.58;96275.38;5012200;28;20533;-43
2021/03/04 03:16:54;;;;;;;9.30;4.90;;;;;;;7.18;45.55;96271.53;5010721;28;20139;-43
2021/03/04 03:19:21;;;;;;;7.65;4.68;;;;;;;7.07;46.19;96272.81;5012600;28;20462;-48
2021/03/04 03:21:48;;;;;;;8.40;4.55;;;;;;;7.43;45.37;96277.44;5012123;28;20658;-44
2021/03/04 03:24:14;;;;;;;6.75;4.07;;;;;;;7.55;44.89;96271.53;5000961;28;20124;-43
2021/03/04 03:26:40;;;;;;;8.15;5.00;;;;;;;7.62;44.97;96270.00;5001914;28;20053;-47
2021/03/04 03:29:07;;;;;;;8.30;4.30;;;;;;;7.59;45.06;96270.63;4997002;28;20077;-45
2021/03/04 03:31:35;;;;;;;8.80;4.60;;;;;;;7.29;45.62;96274.78;4995513;28;20050;-44
2021/03/04 03:34:04;;;;;;;7.35;4.43;;;;;;;7.75;44.55;96271.06;5012445;28;20431;-50
2021/03/04 03:36:34;;;;;;;9.55;4.70;;;;;;;7.62;44.72;96267.31;5010566;28;20384;-44
2021/03/04 03:39:04;;;;;;;9.27;4.30;;;;;;;7.33;45.18;96270.38;5003924;28;20054;-46
2021/03/04 03:41:32;;;;;;;7.28;4.32;;;;;;;7.40;45.09;96270.75;5009365;28;20045;-49
2021/03/04 03:43:59;;;;;;;10.85;4.85;;;;;;;7.37;44.93;96273.25;4997480;28;20070;-44
2021/03/04 03:46:30;;;;;;;11.75;4.60;;;;;;;7.17;45.07;96278.00;5011642;28;20066;-43
2021/03/04 03:49:01;;;;;;;8.02;4.20;;;;;;;7.24;45.26;96273.00;5012122;28;20050;-48
2021/03/04 03:51:30;;;;;;;7.22;4.68;;;;;;;7.14;45.49;96257.06;5006911;28;20137;-44
2021/03/04 03:53:59;;;;;;;8.52;4.50;;;;;;;6.86;45.94;96268.94;5012277;28;20132;-43
2021/03/04 03:56:26;;;;;;;15.25;5.32;;;;;;;7.19;45.34;96259.66;5010240;28;20104;-52
2021/03/04 03:58:58;;;;;;;8.43;4.70;;;;;;;7.22;44.82;96252.88;5009471;28;20054;-48
2021/03/04 04:01:28;;;;;;;8.52;4.72;;;;;;;7.50;44.65;96269.75;5012111;28;20045;-49
2021/03/04 04:03:58;;;;;;;7.03;4.18;;;;;;;7.08;45.25;96263.66;5008480;28;20054;-46
2021/03/04 04:06:26;;;;;;;12.95;4.68;;;;;;;7.33;45.08;96272.28;4997963;28;20137;-49
2021/03/04 04:08:54;;;;;;;8.65;4.63;;;;;;;7.02;45.66;96265.66;4996969;28;20086;-47
2021/03/04 04:11:21;;;;;;;7.30;4.35;;;;;;;7.02;45.70;96264.88;4999276;28;20046;-47
2021/03/04 04:13:49;;;;;;;15.40;5.32;;;;;;;7.17;45.38;96269.91;5013260;28;20054;-48
2021/03/04 04:16:16;;;;;;;8.32;4.70;;;;;;;7.20;45.44;96268.53;5009718;28;20046;-47
2021/03/04 04:18:44;;;;;;;10.80;4.47;;;;;;;7.06;45.46;96260.47;5012031;28;20050;-48
2021/03/04 04:21:12;;;;;;;10.32;4.63;;;;;;;6.95;45.81;96256.41;5002124;28;20144;-48
2021/03/04 04:23:40;;;;;;;8.32;4.80;;;;;;;7.41;44.87;96263.47;4996600;28;20050;-47
2021/03/04 04:26:07;;;;;;;10.73;4.90;;;;;;;7.86;44.24;96261.63;5000463;28;20085;-47
2021/03/04 04:28:34;;;;;;;9.55;4.80;;;;;;;7.57;44.38;96264.75;4996948;28;20070;-49
2021/03/04 04:31:01;;;;;;;8.60;4.68;;;;;;;7.20;45.08;96244.31;4995012;28;20044;-47
2021/03/04 04:33:27;;;;;;;10.30;4.95;;;;;;;7.32;45.11;96254.56;5004174;28;20423;-46
2021/03/04 04:35:54;;;;;;;9.90;4.43;;;;;;;7.31;45.52;96256.41;5009851;28;20065;-49
2021/03/04 04:38:20;;;;;;;11.82;4.97;;;;;;;7.37;45.45;96251.72;5001088;28;20050;-47
2021/03/04 04:40:47;;;;;;;13.18;5.75;;;;;;;7.60;44.79;96255.25;5001262;28;20038;-48
2021/03/04 04:43:14;;;;;;;12.48;5.25;;;;;;;7.64;44.45;96248.97;4999943;28;20172;-47
2021/03/04 04:45:40;;;;;;;12.98;6.13;;;;;;;7.69;44.48;96238.06;5008633;28;20042;-47
2021/03/04 04:48:07;;;;;;;10.40;5.10;;;;;;;7.88;43.66;96248.66;4998998;28;20061;-47
2021/03/04 04:50:33;;;;;;;10.52;4.63;;;;;;;7.74;44.60;96239.84;5008515;28;20116;-48
2021/03/04 04:53:00;;;;;;;9.00;5.13;;;;;;;7.39;45.17;96228.00;5000978;28;20477;-50
2021/03/04 04:55:27;;;;;;;7.43;4.88;;;;;;;7.02;45.70;96235.28;4995076;28;20133;-48
2021/03/04 04:57:53;;;;;;;10.63;5.00;;;;;;;6.87;46.18;96233.69;5010037;28;20108;-48
2021/03/04 05:00:21;;;;;;;9.10;4.97;;;;;;;6.86;45.95;96223.22;5011266;28;20195;-48
2021/03/04 05:02:47;;;;;;;13.80;5.10;;;;;;;7.03;46.01;96224.22;5002698;28;20050;-50
2021/03/04 05:05:14;;;;;;;8.68;4.65;;;;;;;7.57;44.93;96237.00;4993319;28;20145;-50
2021/03/04 05:07:40;;;;;;;9.95;5.03;;;;;;;7.97;43.52;96229.84;5005744;28;20145;-46
2021/03/04 05:10:09;;;;;;;17.52;5.32;;;;;;;7.86;44.25;96228.50;4997768;28;20042;-44
2021/03/04 05:12:36;;;;;;;10.60;4.57;;;;;;;7.55;44.05;96217.69;5001460;28;20129;-47
2021/03/04 05:15:08;;;;;;;13.23;6.28;;;;;;;7.10;45.48;96214.94;5011633;28;20045;-45
2021/03/04 05:17:38;;;;;;;9.35;5.32;;;;;;;7.31;45.14;96216.06;5002458;28;20058;-43
2021/03/04 05:20:09;;;;;;;20.00;6.47;;;;;;;7.77;44.92;96214.16;5004205;28;20160;-49
2021/03/04 05:22:35;;;;;;;14.93;5.60;;;;;;;7.49;45.38;96214.31;5009635;28;20050;-48
2021/03/04 05:25:02;;;;;;;12.13;4.90;;;;;;;7.21;45.17;96202.81;5009107;28;20138;-54
2021/03/04 05:27:29;;;;;;;10.02;4.97;;;;;;;7.23;44.95;96204.13;5007509;28;20049;-44
2021/03/04 05:29:55;;;;;;;9.38;5.07;;;;;;;7.23;45.34;96201.44;5011811;28;20056;-47
2021/03/04 05:32:22;;;;;;;10.45;5.22;;;;;;;7.05;45.50;96201.56;5009472;28;20050;-46
2021/03/04 05:34:49;;;;;;;12.15;4.82;;;;;;;7.37;44.79;96205.97;5000327;28;20058;-46
2021/03/04 05:37:15;;;;;;;10.98;4.78;;;;;;;7.42;44.44;96203.97;5002955;28;20108;-44
2021/03/04 05:39:41;;;;;;;9.65;4.22;;;;;;;7.12;44.59;96189.31;5000702;28;20073;-46
2021/03/04 05:42:09;;;;;;;11.30;4.90;;;;;;;7.49;45.00;96209.72;4998435;28;20051;-45
2021/03/04 05:44:36;;;;;;;11.68;4.60;;;;;;;7.34;44.50;96211.97;5006584;28;20054;-45
2021/03/04 05:47:05;;;;;;;9.27;4.32;;;;;;;7.78;43.68;96202.31;5008007;28;20573;-49
2021/03/04 05:49:40;;;;;;;10.32;4.38;;;;;;;7.54;44.43;96189.16;5009373;28;20129;-53
2021/03/04 05:52:08;;;;;;;17.30;5.65;;;;;;;8.22;43.22;96200.66;4998954;28;20050;-45
2021/03/04 05:54:38;;;;;;;8.45;4.53;;;;;;;7.92;43.57;96186.88;4999827;28;20085;-48
2021/03/04 05:57:06;;;;;;;11.30;5.07;;;;;;;7.57;44.42;96194.75;5006438;28;20053;-42
2021/03/04 05:59:34;;;;;;;10.93;4.93;;;;;;;7.53;45.05;96188.34;4996999;28;20100;-44
2021/03/04 06:02:04;;;;;;;11.52;4.60;;;;;;;7.29;45.43;96182.50;5005988;28;20454;-44
2021/03/04 06:04:31;;;;;;;16.88;5.45;;;;;;;8.01;44.58;96189.63;5003753;28;20050;-44
2021/03/04 06:06:58;;;;;;;28.10;7.40;;;;;;;8.07;44.40;96183.78;4996698;28;20100;-47
2021/03/04 06:09:27;;;;;;;11.98;5.15;;;;;;;7.77;45.33;96190.75;5010268;28;20503;-46
2021/03/04 06:12:00;;;;;;;9.63;4.75;;;;;;;7.50;45.24;96181.69;5008076;28;20121;-48
2021/03/04 06:14:27;;;;;;;8.90;5.07;;;;;;;7.36;45.32;96180.16;5010489;28;20073;-47
2021/03/04 06:16:53;;;;;;;17.13;5.22;;;;;;;7.49;44.97;96188.19;5006427;28;20127;-50
2021/03/04 06:19:20;;;;;;;25.52;6.32;;;;;;;7.82;45.06;96182.53;5006275;28;20054;-47
2021/03/04 06:21:58;;;;;;;13.82;4.82;;;;;;;7.60;45.09;96188.72;5010655;28;20145;-49
2021/03/04 06:24:25;;;;;;;13.55;5.15;;;;;;;7.37;45.30;96192.50;5006659;28;20540;-47
2021/03/04 06:26:55;;;;;;;13.00;6.68;;;;;;;7.30;45.39;96192.94;4999736;28;20076;-46
2021/03/04 06:29:24;;;;;;;9.80;4.50;;;;;;;7.14;45.57;96181.72;5010412;28;20076;-46
2021/03/04 06:32:06;;;;;;;11.15;4.85;;;;;;;7.22;45.08;96164.06;5008393;28;20046;-47
2021/03/04 06:34:33;;;;;;;10.38;5.43;;;;;;;6.97;45.58;96179.69;5004870;28;20086;-44
2021/03/04 06:37:06;;;;;;;13.77;7.00;;;;;;;7.05;46.17;96171.97;5002428;28;20168;-45
2021/03/04 06:39:45;;;;;;;13.43;6.28;;;;;;;7.15;45.41;96179.81;5009896;28;20116;-47
2021/03/04 06:42:13;;;;;;;12.02;5.82;;;;;;;7.22;45.32;96174.84;5007289;28;20052;-46
2021/03/04 06:44:47;;;;;;;13.35;5.25;;;;;;;7.43;44.34;96169.75;5003633;28;20077;-45
2021/03/04 06:47:39;;;;;;;10.70;5.13;;;;;;;7.77;43.50;96181.84;5007374;28;20111;-45
2021/03/04 06:50:06;;;;;;;18.10;4.75;;;;;;;8.12;43.13;96174.75;5003457;28;20061;-46
2021/03/04 06:52:39;;;;;;;14.05;5.30;;;;;;;7.96;42.89;96182.44;5006159;28;20046;-45
2021/03/04 06:55:13;;;;;;;9.27;4.50;;;;;;;8.01;43.31;96171.53;5013082;28;20569;-47
2021/03/04 06:57:40;;;;;;;12.77;5.57;;;;;;;7.81;44.02;96172.88;5009843;28;20057;-45
2021/03/04 07:00:27;;;;;;;13.75;4.95;;;;;;;8.49;43.32;96173.53;5006369;28;20047;-45
2021/03/04 07:02:58;;;;;;;15.65;5.75;;;;;;;8.69;43.00;96163.25;5004635;28;20046;-46
2021/03/04 07:05:25;;;;;;;8.50;4.28;;;;;;;8.37;42.98;96165.97;5001774;28;20058;-45
2021/03/04 07:07:54;;;;;;;10.40;4.93;;;;;;;7.62;44.48;96174.97;5011583;28;20077;-47
2021/03/04 07:10:23;;;;;;;7.68;4.30;;;;;;;7.47;44.55;96168.03;5008430;28;20042;-49
2021/03/04 07:12:50;;;;;;;11.27;4.63;;;;;;;7.91;44.29;96164.53;5011382;28;20049;-45
2021/03/04 07:15:18;;;;;;;10.60;4.65;;;;;;;8.43;43.36;96172.06;5009225;28;20124;-48
2021/03/04 07:17:48;;;;;;;9.90;3.95;;;;;;;8.44;42.72;96165.56;5002992;28;20523;-49
2021/03/04 07:20:17;;;;;;;11.88;4.13;;;;;;;8.10;42.53;96175.06;5005656;28;20480;-47
2021/03/04 07:23:02;;;;;;;9.05;4.57;;;;;;;8.15;42.96;96166.06;4998135;28;20056;-50
2021/03/04 07:25:31;;;;;;;11.93;5.60;;;;;;;8.52;41.86;96169.41;4995327;28;20100;-44
2021/03/04 07:27:57;;;;;;;12.18;5.50;;;;;;;8.25;42.20;96173.84;5010973;28;20061;-47
2021/03/04 07:30:24;;;;;;;15.77;8.35;;;;;;;8.00;43.38;96172.66;5009479;28;20133;-45
2021/03/04 07:32:51;;;;;;;11.55;5.70;;;;;;;8.06;42.29;96176.81;5012382;28;20062;-49
2021/03/04 07:35:18;;;;;;;13.60;5.85;;;;;;;7.92;43.12;96174.19;5000060;28;20048;-43
2021/03/04 07:37:45;;;;;;;13.60;6.10;;;;;;;8.03;42.70;96172.03;5012474;28;20124;-47
2021/03/04 07:40:14;;;;;;;10.05;4.55;;;;;;;8.06;42.21;96165.22;5013759;28;20120;-44
2021/03/04 07:42:40;;;;;;;8.13;4.82;;;;;;;8.29;42.02;96160.59;5014446;28;20221;-50
2021/03/04 07:45:17;;;;;;;13.35;4.72;;;;;;;8.24;42.05;96163.41;5012988;28;20054;-51
2021/03/04 07:47:48;;;;;;;10.45;4.40;;;;;;;8.34;41.53;96163.13;5014206;28;20087;-47
2021/03/04 07:50:20;;;;;;;12.25;3.92;;;;;;;8.33;41.14;96151.53;4994492;28;20066;-46
2021/03/04 07:52:47;;;;;;;10.85;4.55;;;;;;;8.42;41.22;96152.41;4994606;28;20058;-48
2021/03/04 07:55:15;;;;;;;9.18;3.60;;;;;;;8.28;40.82;96154.38;5003892;28;20495;-52
2021/03/04 07:57:48;;;;;;;8.60;3.70;;;;;;;8.36;40.66;96150.13;5008083;28;20055;-54
2021/03/04 08:00:15;;;;;;;9.75;3.78;;;;;;;8.50;40.38;96150.03;4993835;28;20055;-50
2021/03/04 08:02:43;;;;;;;10.23;4.50;;;;;;;8.36;41.23;96147.44;4994283;28;20109;-45
2021/03/04 08:05:13;;;;;;;11.50;3.85;;;;;;;8.92;39.63;96140.44;4994664;28;20562;-48
2021/03/04 08:07:43;;;;;;;12.60;4.05;;;;;;;8.99;39.49;96135.34;5009423;28;20054;-43
2021/03/04 08:10:21;;;;;;;12.45;4.47;;;;;;;8.71;39.97;96134.88;5011765;28;20058;-46
2021/03/04 08:12:55;;;;;;;10.43;4.05;;;;;;;8.99;39.76;96137.28;5014120;28;20120;-50
2021/03/04 08:15:33;;;;;;;9.65;4.78;;;;;;;9.18;39.26;96129.66;5013904;28;20053;-44
2021/03/04 08:18:00;;;;;;;12.45;4.60;;;;;;;9.26;38.56;96128.06;5000528;28;20055;-45
2021/03/04 08:20:27;;;;;;;12.27;5.70;;;;;;;8.74;39.50;96123.44;5002537;28;20081;-50
2021/03/04 08:22:57;;;;;;;12.73;5.03;;;;;;;9.12;38.88;96126.31;5013443;28;20542;-43
2021/03/04 08:25:31;;;;;;;22.70;10.05;;;;;;;8.91;39.22;96125.38;5010442;28;20499;-48
2021/03/04 08:27:59;;;;;;;14.45;6.18;;;;;;;9.00;38.73;96128.88;5000419;28;20113;-53
2021/03/04 08:30:29;;;;;;;13.57;6.00;;;;;;;8.87;39.43;96124.38;5004176;28;20060;-44
2021/03/04 08:32:59;;;;;;;9.63;4.15;;;;;;;8.95;38.43;96120.13;5013066;28;20065;-47
2021/03/04 08:35:25;;;;;;;18.42;5.47;;;;;;;8.99;38.31;96105.66;5013524;28;20057;-47
2021/03/04 08:37:56;;;;;;;7.90;3.83;;;;;;;9.04;38.19;96118.22;5013027;28;20117;-45
2021/03/04 08:40:22;;;;;;;9.57;4.30;;;;;;;9.27;37.44;96118.84;4994278;28;20054;-48
2021/03/04 08:42:49;;;;;;;12.98;5.70;;;;;;;9.16;37.88;96095.97;5011366;28;20050;-50
2021/03/04 08:45:26;;;;;;;10.10;5.18;;;;;;;9.19;38.07;96106.94;4994846;28;20560;-47
2021/03/04 08:47:52;;;;;;;9.98;5.13;;;;;;;9.45;37.37;96101.50;5013141;28;20060;-49
2021/03/04 08:50:19;;;;;;;12.93;5.13;;;;;;;9.39;37.93;96110.88;4998915;28;20109;-51
2021/03/04 08:52:46;;;;;;;26.17;12.43;;;;;;;9.56;37.41;96097.38;4995619;28;20050;-47
2021/03/04 08:55:12;;;;;;;9.65;5.07;;;;;;;9.50;37.66;96090.53;5007617;28;20101;-50
2021/03/04 08:57:39;;;;;;;12.32;5.20;;;;;;;9.59;37.40;96099.44;5006821;28;20069;-50
2021/03/04 09:00:10;;;;;;;10.52;5.47;;;;;;;9.65;37.37;96085.72;5001015;28;20435;-49
2021/03/04 09:02:41;;;;;;;12.93;5.85;;;;;;;9.78;37.25;96090.13;4994439;28;20050;-51
2021/03/04 09:05:09;;;;;;;10.73;4.82;;;;;;;9.81;37.35;96093.00;4994529;28;20142;-44
2021/03/04 09:07:44;;;;;;;14.95;6.28;;;;;;;10.14;36.97;96081.59;5005362;28;20074;-45
2021/03/04 09:10:12;;;;;;;17.92;9.15;;;;;;;9.95;37.42;96084.69;5007761;28;20104;-45
2021/03/04 09:12:43;;;;;;;11.05;5.97;;;;;;;9.89;37.67;96082.50;4997833;28;20054;-46
2021/03/04 09:15:12;;;;;;;11.40;5.70;;;;;;;9.87;37.96;96072.00;5007116;28;20128;-46
2021/03/04 09:17:43;;;;;;;13.50;5.82;;;;;;;9.92;37.57;96073.75;5005364;28;20091;-47
2021/03/04 09:20:12;;;;;;;14.68;7.20;;;;;;;10.19;37.10;96075.19;5001488;28;20058;-47
2021/03/04 09:22:43;;;;;;;14.18;5.90;;;;;;;10.00;37.77;96067.50;5012264;28;20066;-49
2021/03/04 09:25:12;;;;;;;14.85;5.75;;;;;;;10.10;37.32;96059.00;4995562;28;20459;-51
2021/03/04 09:27:39;;;;;;;11.18;5.65;;;;;;;10.04;37.24;96052.19;5006490;28;20100;-46
2021/03/04 09:30:09;;;;;;;16.70;9.07;;;;;;;10.04;37.18;96047.63;5010741;28;20058;-49
2021/03/04 09:32:36;;;;;;;12.85;6.18;;;;;;;10.30;36.94;96057.50;5002037;28;20039;-50
2021/03/04 09:35:11;;;;;;;15.30;6.38;;;;;;;10.50;36.71;96056.75;5030185;28;20046;-44
2021/03/04 09:37:38;;;;;;;16.38;6.05;;;;;;;10.47;37.03;96051.22;5008399;28;20064;-43
2021/03/04 09:40:05;;;;;;;13.02;5.63;;;;;;;10.70;36.60;96049.78;5012351;28;20081;-49
2021/03/04 09:42:37;;;;;;;12.95;5.82;;;;;;;10.89;36.30;96046.63;5000824;28;20046;-45
2021/03/04 09:45:11;;;;;;;12.00;5.80;;;;;;;10.77;36.44;96043.84;5001905;28;20523;-48
2021/03/04 09:47:48;;;;;;;12.02;5.90;;;;;;;10.75;36.61;96024.41;5003327;28;20050;-47
2021/03/04 09:50:26;;;;;;;11.98;6.38;;;;;;;10.81;36.76;96038.56;5009913;28;20084;-47
2021/03/04 09:53:05;;;;;;;11.73;5.85;;;;;;;11.14;36.03;96031.25;5010875;28;20049;-47
2021/03/04 09:55:40;;;;;;;16.52;6.72;;;;;;;11.09;36.00;96030.69;5006698;28;20073;-50
2021/03/04 09:58:12;;;;;;;10.95;5.95;;;;;;;10.81;35.86;96031.22;5008628;28;20144;-49
2021/03/04 10:00:39;;;;;;;12.65;6.18;;;;;;;10.75;36.37;96022.50;5009380;28;20458;-49
2021/03/04 10:03:35;;;;;;;22.63;8.70;;;;;;;10.89;35.79;96014.13;5001618;28;20054;-54
2021/03/04 10:06:03;;;;;;;17.25;7.32;;;;;;;11.09;35.42;96017.94;5000341;28;20062;-50
2021/03/04 10:08:37;;;;;;;13.15;6.10;;;;;;;10.90;34.19;96018.41;5001238;28;20062;-49
2021/03/04 10:11:04;;;;;;;13.65;6.13;;;;;;;10.81;33.61;96012.28;5007919;28;20069;-49
2021/03/04 10:13:32;;;;;;;11.25;5.90;;;;;;;11.08;33.28;96015.53;5009482;28;20054;-44
2021/03/04 10:16:11;;;;;;;13.02;7.38;;;;;;;11.11;32.82;96010.25;5000975;28;20065;-50
2021/03/04 10:18:41;;;;;;;12.25;6.10;;;;;;;10.95;32.80;96012.81;5008926;28;20050;-46
2021/03/04 10:21:08;;;;;;;11.55;5.07;;;;;;;11.00;32.46;96006.38;5008034;28;20165;-47
2021/03/04 10:23:34;;;;;;;12.40;5.70;;;;;;;10.98;32.48;96000.50;5009130;28;20081;-46
2021/03/04 10:26:01;;;;;;;12.27;5.70;;;;;;;11.24;32.30;96008.38;5014984;28;20057;-47
2021/03/04 10:28:28;;;;;;;9.65;5.28;;;;;;;11.21;31.97;95995.50;5013669;28;20057;-48
2021/03/04 10:30:54;;;;;;;11.52;5.30;;;;;;;11.16;31.72;95995.72;5013373;28;20126;-49
2021/03/04 10:33:21;;;;;;;8.50;4.85;;;;;;;11.18;31.82;95982.66;5017648;28;20053;-50
2021/03/04 10:35:48;;;;;;;10.18;4.93;;;;;;;11.16;32.34;95987.59;5008939;28;20169;-50
2021/03/04 10:38:14;;;;;;;13.75;5.93;;;;;;;11.04;32.10;95987.56;5005769;28;20136;-51
2021/03/04 10:40:41;;;;;;;14.80;6.32;;;;;;;11.04;32.30;95966.69;5015521;28;20681;-50
2021/03/04 10:43:08;;;;;;;10.32;4.90;;;;;;;11.11;31.85;95983.16;5013489;28;20046;-52
2021/03/04 10:45:34;;;;;;;9.23;5.00;;;;;;;11.23;31.49;95972.38;5006543;28;20053;-51
2021/03/04 10:48:01;;;;;;;13.18;5.43;;;;;;;11.55;31.17;95974.59;5015682;28;20072;-47
2021/03/04 10:50:28;;;;;;;11.98;5.20;;;;;;;11.35;31.46;95958.06;5004538;28;20125;-49
2021/03/04 10:52:54;;;;;;;15.40;5.57;;;;;;;11.64;31.21;95972.56;4995111;28;20133;-48
2021/03/04 10:55:37;;;;;;;14.52;5.95;;;;;;;11.74;31.58;95965.91;5015054;28;20037;-50
2021/03/04 10:58:04;;;;;;;17.13;6.72;;;;;;;11.52;31.54;95967.13;5007538;28;20054;-51
2021/03/04 11:00:31;;;;;;;9.95;5.53;;;;;;;11.65;31.28;95953.25;5010771;28;20069;-53
2021/03/04 11:03:01;;;;;;;12.68;6.00;;;;;;;11.78;31.55;95954.03;5018097;28;20508;-49
2021/03/04 11:05:28;;;;;;;16.00;6.43;;;;;;;11.80;31.61;95943.66;5011085;28;20116;-50
2021/03/04 11:07:54;;;;;;;13.32;5.90;;;;;;;12.01;31.25;95942.75;5007459;28;20471;-49
2021/03/04 11:10:21;;;;;;;10.32;5.78;;;;;;;12.14;30.85;95944.31;5011111;28;20400;-47
2021/03/04 11:12:48;;;;;;;12.77;5.82;;;;;;;12.46;30.70;95939.06;5012239;28;20551;-48
2021/03/04 11:15:15;;;;;;;12.23;6.68;;;;;;;12.53;30.54;95934.63;5003508;28;20400;-47
2021/03/04 11:17:41;;;;;;;12.73;5.60;;;;;;;12.91;30.19;95940.69;5006766;28;20431;-49
2021/03/04 11:20:09;;;;;;;9.75;5.72;;;;;;;12.92;29.77;95937.63;5002299;28;20050;-48
2021/03/04 11:22:35;;;;;;;20.50;9.07;;;;;;;12.95;30.49;95934.22;5003165;28;20054;-50
2021/03/04 11:25:03;;;;;;;14.90;7.88;;;;;;;13.15;29.88;95932.41;5002341;28;20050;-45
2021/03/04 11:27:29;;;;;;;14.80;6.82;;;;;;;13.77;29.59;95925.44;5009919;28;20050;-50
2021/03/04 11:29:56;;;;;;;12.40;6.25;;;;;;;15.84;25.87;95922.50;5009798;28;20057;-44
2021/03/04 11:32:27;;;;;;;16.05;7.03;;;;;;;17.33;23.31;95922.84;5010138;28;20479;-53
2021/03/04 11:34:55;;;;;;;11.40;5.90;;;;;;;16.92;24.03;95909.13;4998004;28;20055;-49
2021/03/04 11:37:21;;;;;;;14.88;6.82;;;;;;;17.93;22.81;95914.38;5009082;28;20491;-49
2021/03/04 11:39:49;;;;;;;14.55;6.80;;;;;;;17.47;23.58;95920.25;5010469;28;20054;-52
2021/03/04 11:42:16;;;;;;;20.10;7.30;;;;;;;15.82;26.23;95906.50;5015047;28;20187;-49
2021/03/04 11:44:45;;;;;;;12.50;6.75;;;;;;;15.20;26.96;95900.38;5010183;28;20393;-50